Time;durP1;ratioP1;P1;durP2;ratioP2;P2;SDS_P1;SDS_P2;PMS_P1;PMS_P2;Temp;Humidity;BMP_temperature;BMP_pressure;BME280_temperature;BME280_humidity;BME280_pressure;Samples;Min_cycle;Max_cycle;Signal;HPM_P1;HPM_P2
2022/04/30 00:01:22;;;;;;;;;;;;;;;;;;5025489;28;1173;-75
2022/04/30 00:03:47;;;;;;;;;;;;;;;;;;5027437;28;1285;-75
2022/04/30 00:06:12;;;;;;;;;;;;;;;;;;5023144;28;1226;-75
2022/04/30 00:08:38;;;;;;;;;;;;;;;;;;5008830;28;1157;-75
2022/04/30 00:11:07;;;;;;;;;;;;;;;;;;5008309;28;1286;-76
2022/04/30 00:13:32;;;;;;;;;;;;;;;;;;5022562;28;1982;-75
2022/04/30 00:15:59;;;;;;;;;;;;;;;;;;5022598;28;1167;-75
2022/04/30 00:18:25;;;;;;;;;;;;;;;;;;5024486;28;1146;-75
2022/04/30 00:20:53;;;;;;;;;;;;;;;;;;5006456;28;1439;-74
2022/04/30 00:23:21;;;;;;;;;;;;;;;;;;5009149;28;1251;-74
2022/04/30 00:25:54;;;;;;;;;;;;;;;;;;5009413;28;1227;-75
2022/04/30 00:28:20;;;;;;;;;;;;;;;;;;5041173;28;1262;-75
2022/04/30 00:30:46;;;;;;;;;;;;;;;;;;5043805;28;1125;-75
2022/04/30 00:33:12;;;;;;;;;;;;;;;;;;5027381;28;1934;-75
2022/04/30 00:35:37;;;;;;;;;;;;;;;;;;5042518;28;1291;-75
2022/04/30 00:38:03;;;;;;;;;;;;;;;;;;5043844;28;1158;-74
2022/04/30 00:40:28;;;;;;;;;;;;;;;;;;5043946;28;1398;-74
2022/04/30 00:42:53;;;;;;;;;;;;;;;;;;5016367;28;1431;-75
2022/04/30 00:45:20;;;;;;;;;;;;;;;;;;5021632;28;1133;-76
2022/04/30 00:47:46;;;;;;;;;;;;;;;;;;5008278;28;1118;-75
2022/04/30 00:50:14;;;;;;;;;;;;;;;;;;5019945;28;1278;-75
2022/04/30 00:52:40;;;;;;;;;;;;;;;;;;5029939;28;1886;-73
2022/04/30 00:55:19;;;;;;;;;;;;;;;;;;5023740;28;1147;-74
2022/04/30 00:57:44;;;;;;;;;;;;;;;;;;5033221;28;1345;-75
2022/04/30 01:00:10;;;;;;;;;;;;;;;;;;5002991;28;1169;-74
2022/04/30 01:02:36;;;;;;;;;;;;;;;;;;5008421;28;1315;-75
2022/04/30 01:05:03;;;;;;;;;;;;;;;;;;5021144;28;1370;-74
2022/04/30 01:07:29;;;;;;;;;;;;;;;;;;5022627;28;1314;-75
2022/04/30 01:09:54;;;;;;;;;;;;;;;;;;5024365;28;1223;-75
2022/04/30 01:12:20;;;;;;;;;;;;;;;;;;5021661;28;1953;-73
2022/04/30 01:14:46;;;;;;;;;;;;;;;;;;5020780;28;1151;-75
2022/04/30 01:17:11;;;;;;;;;;;;;;;;;;5023198;28;1212;-76
2022/04/30 01:19:47;;;;;;;;;;;;;;;;;;5008338;28;1454;-74
2022/04/30 01:22:22;;;;;;;;;;;;;;;;;;5027423;28;1080;-75
2022/04/30 01:24:54;;;;;;;;;;;;;;;;;;5028114;28;1121;-76
2022/04/30 01:27:19;;;;;;;;;;;;;;;;;;5043039;28;1157;-76
2022/04/30 01:29:45;;;;;;;;;;;;;;;;;;5045561;28;1363;-76
2022/04/30 01:37:38;;;;;;;;;;;;;;;;;;5035478;28;1060;-75
2022/04/30 01:40:05;;;;;;;;;;;;;;;;;;5033846;28;1200;-76
2022/04/30 01:42:31;;;;;;;;;;;;;;;;;;5031559;28;1086;-75
2022/04/30 01:44:57;;;;;;;;;;;;;;;;;;5031884;28;1188;-75
2022/04/30 01:47:23;;;;;;;;;;;;;;;;;;5046135;28;1277;-76
2022/04/30 01:49:49;;;;;;;;;;;;;;;;;;5050696;28;1263;-74
2022/04/30 01:52:15;;;;;;;;;;;;;;;;;;5035835;28;1953;-76
2022/04/30 01:54:41;;;;;;;;;;;;;;;;;;5056445;28;1176;-76
2022/04/30 01:57:06;;;;;;;;;;;;;;;;;;5055552;28;1160;-75
2022/04/30 01:59:31;;;;;;;;;;;;;;;;;;5052374;28;1160;-76
2022/04/30 02:01:57;;;;;;;;;;;;;;;;;;5055430;28;1092;-76
2022/04/30 02:04:22;;;;;;;;;;;;;;;;;;5050395;28;1144;-74
2022/04/30 02:06:48;;;;;;;;;;;;;;;;;;5046103;28;1204;-74
2022/04/30 02:09:14;;;;;;;;;;;;;;;;;;5016718;28;1276;-75
2022/04/30 02:11:41;;;;;;;;;;;;;;;;;;5028062;28;1249;-75
2022/04/30 02:14:07;;;;;;;;;;;;;;;;;;5027028;28;1886;-75
2022/04/30 02:16:34;;;;;;;;;;;;;;;;;;5026279;28;1268;-74
2022/04/30 02:19:01;;;;;;;;;;;;;;;;;;5043181;28;1312;-75
2022/04/30 02:21:29;;;;;;;;;;;;;;;;;;5045595;28;1165;-75
2022/04/30 02:23:58;;;;;;;;;;;;;;;;;;5049460;28;1116;-74
2022/04/30 02:26:27;;;;;;;;;;;;;;;;;;5042101;28;1216;-75
2022/04/30 02:28:55;;;;;;;;;;;;;;;;;;5008251;28;1297;-75
2022/04/30 02:31:22;;;;;;;;;;;;;;;;;;5026009;28;1389;-75
2022/04/30 02:33:47;;;;;;;;;;;;;;;;;;5028329;28;1918;-75
2022/04/30 02:36:30;;;;;;;;;;;;;;;;;;5023881;28;1282;-75
2022/04/30 02:38:56;;;;;;;;;;;;;;;;;;5033163;28;1403;-75
2022/04/30 02:41:28;;;;;;;;;;;;;;;;;;5046719;28;1263;-75
2022/04/30 02:43:54;;;;;;;;;;;;;;;;;;5046479;28;1144;-75
2022/04/30 02:46:23;;;;;;;;;;;;;;;;;;5046033;28;1297;-76
2022/04/30 02:48:49;;;;;;;;;;;;;;;;;;5047918;28;1204;-74
2022/04/30 02:51:21;;;;;;;;;;;;;;;;;;5044023;28;1238;-76
2022/04/30 02:53:47;;;;;;;;;;;;;;;;;;5046590;28;1898;-74
2022/04/30 02:56:12;;;;;;;;;;;;;;;;;;5029802;28;1279;-74
2022/04/30 03:01:24;;;;;;;;;;;;;;;;;;5043826;28;1145;-75
2022/04/30 03:03:50;;;;;;;;;;;;;;;;;;5028962;28;1198;-74
2022/04/30 03:06:17;;;;;;;;;;;;;;;;;;5042412;28;1191;-76
2022/04/30 03:08:47;;;;;;;;;;;;;;;;;;5027708;28;1219;-76
2022/04/30 03:11:12;;;;;;;;;;;;;;;;;;5025482;28;1341;-75
2022/04/30 03:13:48;;;;;;;;;;;;;;;;;;5022386;28;1915;-75
2022/04/30 03:21:44;;;;;;;;;;;;;;;;;;5024008;28;962;-73
2022/04/30 03:24:18;;;;;;;;;;;;;;;;;;5028000;28;1212;-74
2022/04/30 03:26:47;;;;;;;;;;;;;;;;;;5010082;28;1225;-75
2022/04/30 03:29:14;;;;;;;;;;;;;;;;;;5043299;28;1294;-73
2022/04/30 03:31:40;;;;;;;;;;;;;;;;;;5044736;28;1332;-75
2022/04/30 03:34:09;;;;;;;;;;;;;;;;;;5045584;28;1914;-75
2022/04/30 03:36:35;;;;;;;;;;;;;;;;;;5041176;28;1270;-74
2022/04/30 03:39:00;;;;;;;;;;;;;;;;;;5047579;28;1287;-74
2022/04/30 03:41:29;;;;;;;;;;;;;;;;;;5007097;28;1277;-76
2022/04/30 03:43:55;;;;;;;;;;;;;;;;;;5006387;28;1159;-76
2022/04/30 03:46:21;;;;;;;;;;;;;;;;;;5019737;28;1299;-76
2022/04/30 03:48:51;;;;;;;;;;;;;;;;;;5045625;28;1149;-75
2022/04/30 03:51:17;;;;;;;;;;;;;;;;;;5025094;28;1116;-75
2022/04/30 03:53:42;;;;;;;;;;;;;;;;;;5023850;28;1953;-73
2022/04/30 03:56:08;;;;;;;;;;;;;;;;;;5025464;28;1151;-76
2022/04/30 03:58:33;;;;;;;;;;;;;;;;;;5025181;28;1352;-74
2022/04/30 04:00:58;;;;;;;;;;;;;;;;;;5023453;28;1283;-73
2022/04/30 04:03:24;;;;;;;;;;;;;;;;;;5024536;28;1234;-75
2022/04/30 04:05:49;;;;;;;;;;;;;;;;;;5013773;28;1286;-76
2022/04/30 04:08:17;;;;;;;;;;;;;;;;;;5009063;28;1428;-76
2022/04/30 04:10:43;;;;;;;;;;;;;;;;;;5022505;28;1263;-75
2022/04/30 04:18:36;;;;;;;;;;;;;;;;;;5044784;28;1084;-75
2022/04/30 04:21:02;;;;;;;;;;;;;;;;;;5022237;28;1219;-74
2022/04/30 04:26:13;;;;;;;;;;;;;;;;;;5044865;28;1587;-75
2022/04/30 04:28:48;;;;;;;;;;;;;;;;;;5023349;28;1177;-75
2022/04/30 04:31:14;;;;;;;;;;;;;;;;;;5008409;28;1211;-75
2022/04/30 04:33:39;;;;;;;;;;;;;;;;;;5022520;28;1906;-73
2022/04/30 04:36:05;;;;;;;;;;;;;;;;;;5021501;28;1310;-76
2022/04/30 04:38:31;;;;;;;;;;;;;;;;;;5006258;28;1303;-74
2022/04/30 04:40:56;;;;;;;;;;;;;;;;;;5025138;28;1145;-75
2022/04/30 04:43:21;;;;;;;;;;;;;;;;;;5005528;28;1201;-74
2022/04/30 04:45:46;;;;;;;;;;;;;;;;;;5019884;28;1169;-75
2022/04/30 04:48:12;;;;;;;;;;;;;;;;;;5023466;28;1302;-74
2022/04/30 04:50:39;;;;;;;;;;;;;;;;;;5025415;28;1113;-75
2022/04/30 04:53:04;;;;;;;;;;;;;;;;;;5044020;28;1902;-74
2022/04/30 04:55:32;;;;;;;;;;;;;;;;;;5024255;28;1157;-74
2022/04/30 04:57:57;;;;;;;;;;;;;;;;;;5025458;28;1175;-75
2022/04/30 05:00:22;;;;;;;;;;;;;;;;;;5024238;28;1399;-75
2022/04/30 05:02:48;;;;;;;;;;;;;;;;;;5037267;28;1152;-75
2022/04/30 05:05:14;;;;;;;;;;;;;;;;;;5022501;28;1157;-74
2022/04/30 05:07:39;;;;;;;;;;;;;;;;;;5007746;28;1246;-75
2022/04/30 05:10:04;;;;;;;;;;;;;;;;;;5024511;28;1192;-76
2022/04/30 05:12:39;;;;;;;;;;;;;;;;;;5029168;28;1902;-75
2022/04/30 05:15:04;;;;;;;;;;;;;;;;;;5039994;28;1363;-75
2022/04/30 05:17:36;;;;;;;;;;;;;;;;;;5044060;28;1192;-74
2022/04/30 05:20:01;;;;;;;;;;;;;;;;;;5038835;28;1142;-75
2022/04/30 05:22:26;;;;;;;;;;;;;;;;;;5026520;28;1317;-76
2022/04/30 05:24:53;;;;;;;;;;;;;;;;;;5038840;28;1362;-74
2022/04/30 05:27:18;;;;;;;;;;;;;;;;;;5040987;28;1220;-75
2022/04/30 05:29:43;;;;;;;;;;;;;;;;;;5041019;28;1022;-75
2022/04/30 05:32:09;;;;;;;;;;;;;;;;;;5047391;28;1197;-76
2022/04/30 05:34:34;;;;;;;;;;;;;;;;;;5036968;28;1965;-74
2022/04/30 05:36:59;;;;;;;;;;;;;;;;;;5043874;28;1287;-75
2022/04/30 05:39:26;;;;;;;;;;;;;;;;;;5048410;28;1202;-75
2022/04/30 05:41:51;;;;;;;;;;;;;;;;;;5046681;28;1161;-75
2022/04/30 05:44:17;;;;;;;;;;;;;;;;;;5046105;28;1143;-75
2022/04/30 05:46:42;;;;;;;;;;;;;;;;;;5012255;28;1213;-74
2022/04/30 05:49:07;;;;;;;;;;;;;;;;;;5011118;28;1201;-75
2022/04/30 05:51:35;;;;;;;;;;;;;;;;;;5021739;28;1148;-75
2022/04/30 05:54:02;;;;;;;;;;;;;;;;;;5035956;28;1889;-76
2022/04/30 05:56:27;;;;;;;;;;;;;;;;;;5031748;28;1126;-75
2022/04/30 05:58:53;;;;;;;;;;;;;;;;;;5032561;28;1353;-75
2022/04/30 06:01:18;;;;;;;;;;;;;;;;;;5028463;28;1301;-74
2022/04/30 06:03:43;;;;;;;;;;;;;;;;;;5029050;28;1082;-74
2022/04/30 06:06:09;;;;;;;;;;;;;;;;;;5023964;28;1164;-75
2022/04/30 06:08:43;;;;;;;;;;;;;;;;;;5043322;28;1153;-74
2022/04/30 06:11:08;;;;;;;;;;;;;;;;;;5046553;28;1273;-74
2022/04/30 06:16:24;;;;;;;;;;;;;;;;;;5047991;28;1271;-73
2022/04/30 06:18:49;;;;;;;;;;;;;;;;;;5045737;28;1077;-75
2022/04/30 06:21:15;;;;;;;;;;;;;;;;;;5043351;28;1162;-74
2022/04/30 06:23:40;;;;;;;;;;;;;;;;;;5044124;28;1196;-74
2022/04/30 06:26:05;;;;;;;;;;;;;;;;;;5046642;28;1418;-75
2022/04/30 06:28:31;;;;;;;;;;;;;;;;;;5038334;28;1148;-75
2022/04/30 06:30:56;;;;;;;;;;;;;;;;;;5021849;28;1491;-74
2022/04/30 06:33:21;;;;;;;;;;;;;;;;;;5025990;28;1967;-76
2022/04/30 06:35:47;;;;;;;;;;;;;;;;;;5023182;28;1363;-74
2022/04/30 06:38:12;;;;;;;;;;;;;;;;;;5045795;28;1240;-75
2022/04/30 06:40:40;;;;;;;;;;;;;;;;;;5012486;28;1385;-74
2022/04/30 06:43:05;;;;;;;;;;;;;;;;;;5007263;28;1265;-74
2022/04/30 06:45:32;;;;;;;;;;;;;;;;;;5007185;28;1220;-74
2022/04/30 06:47:57;;;;;;;;;;;;;;;;;;5024409;28;1208;-74
2022/04/30 06:50:22;;;;;;;;;;;;;;;;;;5007245;28;1228;-74
2022/04/30 06:58:16;;;;;;;;;;;;;;;;;;5024521;28;1068;-74
2022/04/30 07:03:26;;;;;;;;;;;;;;;;;;5026821;28;1235;-75
2022/04/30 07:05:52;;;;;;;;;;;;;;;;;;5021929;28;1252;-75
2022/04/30 07:08:17;;;;;;;;;;;;;;;;;;5026349;28;1191;-75
2022/04/30 07:10:43;;;;;;;;;;;;;;;;;;5023907;28;1647;-75
2022/04/30 07:13:08;;;;;;;;;;;;;;;;;;5043329;28;1940;-75
2022/04/30 07:15:33;;;;;;;;;;;;;;;;;;5026129;28;1203;-75
2022/04/30 07:17:58;;;;;;;;;;;;;;;;;;5044217;28;1082;-74
2022/04/30 07:20:23;;;;;;;;;;;;;;;;;;5044598;28;1465;-74
2022/04/30 07:22:49;;;;;;;;;;;;;;;;;;5044127;28;1097;-73
2022/04/30 07:25:14;;;;;;;;;;;;;;;;;;5046012;28;1186;-75
2022/04/30 07:27:43;;;;;;;;;;;;;;;;;;5019475;28;1196;-74
2022/04/30 07:30:08;;;;;;;;;;;;;;;;;;5023108;28;1573;-76
2022/04/30 07:32:33;;;;;;;;;;;;;;;;;;5012615;28;1920;-76
2022/04/30 07:34:58;;;;;;;;;;;;;;;;;;5005412;28;1167;-75
2022/04/30 07:37:24;;;;;;;;;;;;;;;;;;5018175;28;1375;-75
2022/04/30 07:39:49;;;;;;;;;;;;;;;;;;5026883;28;1192;-74
2022/04/30 07:42:14;;;;;;;;;;;;;;;;;;5027731;28;1389;-75
2022/04/30 07:44:41;;;;;;;;;;;;;;;;;;5025235;28;1173;-74
2022/04/30 07:47:06;;;;;;;;;;;;;;;;;;5024331;28;1179;-74
2022/04/30 07:49:32;;;;;;;;;;;;;;;;;;5024479;28;1431;-75
2022/04/30 07:51:57;;;;;;;;;;;;;;;;;;5021319;28;1073;-75
2022/04/30 07:54:22;;;;;;;;;;;;;;;;;;5041614;28;1906;-77
2022/04/30 07:56:55;;;;;;;;;;;;;;;;;;5040755;28;1113;-77
2022/04/30 07:59:24;;;;;;;;;;;;;;;;;;5044285;28;1157;-75
2022/04/30 08:01:49;;;;;;;;;;;;;;;;;;5033875;28;1081;-72
2022/04/30 08:04:15;;;;;;;;;;;;;;;;;;5031022;28;1479;-75
2022/04/30 08:06:40;;;;;;;;;;;;;;;;;;5031687;28;1196;-74
2022/04/30 08:09:05;;;;;;;;;;;;;;;;;;5022153;28;1293;-74
2022/04/30 08:11:31;;;;;;;;;;;;;;;;;;5021273;28;1242;-75
2022/04/30 08:13:56;;;;;;;;;;;;;;;;;;5004892;28;1940;-74
2022/04/30 08:16:22;;;;;;;;;;;;;;;;;;5038720;28;1235;-76
2022/04/30 08:18:50;;;;;;;;;;;;;;;;;;5042515;28;1356;-75
2022/04/30 08:21:19;;;;;;;;;;;;;;;;;;5037513;28;1320;-75
2022/04/30 08:23:45;;;;;;;;;;;;;;;;;;5044444;28;1223;-74
2022/04/30 08:26:11;;;;;;;;;;;;;;;;;;5026869;28;1157;-75
2022/04/30 08:28:42;;;;;;;;;;;;;;;;;;5033125;28;1273;-76
2022/04/30 08:31:08;;;;;;;;;;;;;;;;;;5009618;28;1420;-76
2022/04/30 08:33:33;;;;;;;;;;;;;;;;;;5025315;28;1963;-75
2022/04/30 08:35:59;;;;;;;;;;;;;;;;;;5020877;28;1054;-75
2022/04/30 08:38:24;;;;;;;;;;;;;;;;;;5024990;28;1183;-74
2022/04/30 08:40:49;;;;;;;;;;;;;;;;;;5005590;28;1172;-75
2022/04/30 08:43:15;;;;;;;;;;;;;;;;;;5005498;28;1406;-74
2022/04/30 08:48:33;;;;;;;;;;;;;;;;;;5025645;28;1222;-75
2022/04/30 08:50:59;;;;;;;;;;;;;;;;;;5004637;28;1420;-76
2022/04/30 08:53:24;;;;;;;;;;;;;;;;;;5024483;28;1899;-75
2022/04/30 08:55:53;;;;;;;;;;;;;;;;;;5005394;28;1177;-74
2022/04/30 08:58:18;;;;;;;;;;;;;;;;;;5009921;28;1350;-76
2022/04/30 09:00:44;;;;;;;;;;;;;;;;;;5018512;28;1169;-75
2022/04/30 09:03:13;;;;;;;;;;;;;;;;;;5021746;28;1339;-76
2022/04/30 09:05:38;;;;;;;;;;;;;;;;;;5026315;28;1140;-76
2022/04/30 09:08:04;;;;;;;;;;;;;;;;;;5027287;28;1270;-76
2022/04/30 09:10:30;;;;;;;;;;;;;;;;;;5010604;28;1209;-76
2022/04/30 09:13:05;;;;;;;;;;;;;;;;;;5027073;28;1933;-73
2022/04/30 09:15:31;;;;;;;;;;;;;;;;;;5025622;28;1338;-74
2022/04/30 09:17:57;;;;;;;;;;;;;;;;;;5028906;28;1157;-75
2022/04/30 09:20:22;;;;;;;;;;;;;;;;;;5026419;28;1167;-75
2022/04/30 09:22:52;;;;;;;;;;;;;;;;;;5028503;28;1148;-76
2022/04/30 09:25:18;;;;;;;;;;;;;;;;;;5012631;28;1223;-75
2022/04/30 09:27:44;;;;;;;;;;;;;;;;;;5026877;28;1197;-75
2022/04/30 09:30:18;;;;;;;;;;;;;;;;;;5021335;28;1280;-76
2022/04/30 09:32:44;;;;;;;;;;;;;;;;;;5028580;28;1969;-75
2022/04/30 09:38:05;;;;;;;;;;;;;;;;;;5027587;28;1026;-74
2022/04/30 09:40:31;;;;;;;;;;;;;;;;;;5032845;28;1137;-75
2022/04/30 09:42:56;;;;;;;;;;;;;;;;;;5031824;28;1206;-75
2022/04/30 09:45:32;;;;;;;;;;;;;;;;;;5036244;28;1358;-75
2022/04/30 09:47:59;;;;;;;;;;;;;;;;;;5043804;28;1282;-76
2022/04/30 09:55:55;;;;;;;;;;;;;;;;;;5047748;28;652;-77
2022/04/30 09:58:24;;;;;;;;;;;;;;;;;;5046500;28;779;-77
2022/04/30 10:00:54;;;;;;;;;;;;;;;;;;5046142;28;815;-77
2022/04/30 10:03:21;;;;;;;;;;;;;;;;;;5045956;28;1063;-76
2022/04/30 10:05:46;;;;;;;;;;;;;;;;;;5044104;28;1012;-76
2022/04/30 10:08:12;;;;;;;;;;;;;;;;;;5029807;28;1170;-77
2022/04/30 10:10:42;;;;;;;;;;;;;;;;;;5029950;28;1192;-76
2022/04/30 10:13:24;;;;;;;;;;;;;;;;;;5043571;28;1882;-76
2022/04/30 10:15:54;;;;;;;;;;;;;;;;;;5043593;28;1352;-76
2022/04/30 10:18:24;;;;;;;;;;;;;;;;;;5030667;28;1259;-73
2022/04/30 10:20:50;;;;;;;;;;;;;;;;;;5023757;28;1141;-73
2022/04/30 10:23:16;;;;;;;;;;;;;;;;;;5025668;28;1074;-73
2022/04/30 10:25:48;;;;;;;;;;;;;;;;;;5042003;28;1300;-76
2022/04/30 10:28:23;;;;;;;;;;;;;;;;;;5013352;28;1180;-75
2022/04/30 10:31:01;;;;;;;;;;;;;;;;;;5044575;28;1188;-73
2022/04/30 10:33:30;;;;;;;;;;;;;;;;;;5045365;28;1914;-75
2022/04/30 10:36:06;;;;;;;;;;;;;;;;;;5032616;28;1189;-74
2022/04/30 10:38:31;;;;;;;;;;;;;;;;;;5029929;28;1206;-76
2022/04/30 10:40:58;;;;;;;;;;;;;;;;;;5046183;28;1243;-76
2022/04/30 10:43:26;;;;;;;;;;;;;;;;;;5042212;28;1160;-77
2022/04/30 10:45:52;;;;;;;;;;;;;;;;;;5036889;28;1242;-76
2022/04/30 10:48:19;;;;;;;;;;;;;;;;;;5029888;28;1346;-75
2022/04/30 10:50:45;;;;;;;;;;;;;;;;;;5039726;28;1220;-75
2022/04/30 10:53:12;;;;;;;;;;;;;;;;;;5044288;28;1956;-76
2022/04/30 10:55:39;;;;;;;;;;;;;;;;;;5045508;28;1212;-77
2022/04/30 10:58:04;;;;;;;;;;;;;;;;;;5044286;28;1324;-75
2022/04/30 11:00:29;;;;;;;;;;;;;;;;;;5043891;28;1271;-77
2022/04/30 11:03:05;;;;;;;;;;;;;;;;;;5042085;28;1212;-76
2022/04/30 11:05:30;;;;;;;;;;;;;;;;;;5037473;28;1173;-77
2022/04/30 11:08:00;;;;;;;;;;;;;;;;;;5048264;28;1156;-76
2022/04/30 11:10:25;;;;;;;;;;;;;;;;;;5040595;28;1179;-76
2022/04/30 11:13:01;;;;;;;;;;;;;;;;;;5032025;28;1886;-77
2022/04/30 11:15:27;;;;;;;;;;;;;;;;;;5022966;28;1291;-77
2022/04/30 11:18:02;;;;;;;;;;;;;;;;;;5035623;28;1169;-76
2022/04/30 11:20:27;;;;;;;;;;;;;;;;;;5029065;28;1255;-76
2022/04/30 11:22:57;;;;;;;;;;;;;;;;;;5028328;28;1320;-77
2022/04/30 11:25:31;;;;;;;;;;;;;;;;;;5008157;28;1173;-76
2022/04/30 11:27:57;;;;;;;;;;;;;;;;;;5027748;28;1189;-75
2022/04/30 11:30:23;;;;;;;;;;;;;;;;;;5008413;28;1502;-76
2022/04/30 11:32:48;;;;;;;;;;;;;;;;;;5044966;28;1914;-75
2022/04/30 11:35:16;;;;;;;;;;;;;;;;;;5040766;28;1393;-75
2022/04/30 11:37:43;;;;;;;;;;;;;;;;;;5036956;28;1255;-72
2022/04/30 11:40:08;;;;;;;;;;;;;;;;;;5029612;28;1183;-74
2022/04/30 11:42:33;;;;;;;;;;;;;;;;;;5043476;28;1182;-74
2022/04/30 11:45:00;;;;;;;;;;;;;;;;;;5040564;28;1228;-73
2022/04/30 11:47:25;;;;;;;;;;;;;;;;;;5033756;28;1153;-75
2022/04/30 11:50:05;;;;;;;;;;;;;;;;;;5031435;28;1271;-74
2022/04/30 11:52:30;;;;;;;;;;;;;;;;;;5044236;28;1222;-74
2022/04/30 11:54:55;;;;;;;;;;;;;;;;;;5042889;28;1890;-74
2022/04/30 11:57:21;;;;;;;;;;;;;;;;;;5023892;28;1230;-75
2022/04/30 11:59:47;;;;;;;;;;;;;;;;;;5025105;28;1305;-75
2022/04/30 12:02:14;;;;;;;;;;;;;;;;;;5043148;28;1247;-75
2022/04/30 12:04:41;;;;;;;;;;;;;;;;;;5031995;28;1262;-74
2022/04/30 12:07:11;;;;;;;;;;;;;;;;;;5019429;28;1291;-76
2022/04/30 12:09:43;;;;;;;;;;;;;;;;;;5028217;28;1201;-75
2022/04/30 12:12:19;;;;;;;;;;;;;;;;;;5040126;28;1009;-75
2022/04/30 12:14:45;;;;;;;;;;;;;;;;;;5040496;28;1943;-76
2022/04/30 12:17:11;;;;;;;;;;;;;;;;;;5026016;28;1188;-75
2022/04/30 12:25:09;;;;;;;;;;;;;;;;;;5043416;28;993;-76
2022/04/30 12:27:37;;;;;;;;;;;;;;;;;;5042560;28;1129;-74
2022/04/30 12:30:09;;;;;;;;;;;;;;;;;;5040677;28;1461;-74
2022/04/30 12:32:45;;;;;;;;;;;;;;;;;;5046012;28;1910;-75
2022/04/30 12:35:12;;;;;;;;;;;;;;;;;;5036596;28;1136;-74
2022/04/30 12:37:37;;;;;;;;;;;;;;;;;;5042643;28;1290;-74
2022/04/30 12:40:02;;;;;;;;;;;;;;;;;;5043545;28;1169;-75
2022/04/30 12:42:28;;;;;;;;;;;;;;;;;;5035940;28;1136;-74
2022/04/30 12:44:53;;;;;;;;;;;;;;;;;;5020583;28;1272;-74
2022/04/30 12:47:18;;;;;;;;;;;;;;;;;;5022283;28;1113;-75
2022/04/30 12:50:03;;;;;;;;;;;;;;;;;;5022275;28;1141;-74
2022/04/30 12:52:28;;;;;;;;;;;;;;;;;;5021952;28;1172;-74
2022/04/30 12:54:53;;;;;;;;;;;;;;;;;;5021137;28;1891;-75
2022/04/30 12:57:19;;;;;;;;;;;;;;;;;;5022340;28;1153;-75
2022/04/30 12:59:48;;;;;;;;;;;;;;;;;;5021886;28;1263;-74
2022/04/30 13:02:13;;;;;;;;;;;;;;;;;;5006733;28;1237;-75
2022/04/30 13:04:42;;;;;;;;;;;;;;;;;;5023060;28;1106;-76
2022/04/30 13:07:11;;;;;;;;;;;;;;;;;;5021845;28;1211;-76
2022/04/30 13:15:11;;;;;;;;;;;;;;;;;;5015870;28;1210;-77
2022/04/30 13:17:38;;;;;;;;;;;;;;;;;;5005917;28;1358;-75
2022/04/30 13:20:04;;;;;;;;;;;;;;;;;;5019142;28;1368;-75
2022/04/30 13:22:29;;;;;;;;;;;;;;;;;;5021444;28;1042;-75
2022/04/30 13:24:55;;;;;;;;;;;;;;;;;;5035885;28;1080;-74
2022/04/30 13:27:20;;;;;;;;;;;;;;;;;;5020540;28;1325;-73
2022/04/30 13:29:45;;;;;;;;;;;;;;;;;;5041114;28;1220;-75
2022/04/30 13:32:11;;;;;;;;;;;;;;;;;;5041179;28;1149;-76
2022/04/30 13:34:40;;;;;;;;;;;;;;;;;;5041055;28;1902;-74
2022/04/30 13:37:05;;;;;;;;;;;;;;;;;;5022368;28;1132;-75
2022/04/30 13:39:31;;;;;;;;;;;;;;;;;;5024174;28;1204;-73
2022/04/30 13:41:56;;;;;;;;;;;;;;;;;;5035392;28;1781;-73
2022/04/30 13:44:21;;;;;;;;;;;;;;;;;;5045689;28;1049;-75
2022/04/30 13:46:47;;;;;;;;;;;;;;;;;;5054741;28;1113;-74
2022/04/30 13:49:15;;;;;;;;;;;;;;;;;;5053686;28;1200;-73
2022/04/30 13:51:41;;;;;;;;;;;;;;;;;;5051392;28;1195;-75
2022/04/30 13:54:06;;;;;;;;;;;;;;;;;;5055279;28;1862;-75
2022/04/30 13:56:36;;;;;;;;;;;;;;;;;;5042272;28;1264;-75
2022/04/30 13:59:04;;;;;;;;;;;;;;;;;;5046828;28;1239;-73
2022/04/30 14:01:29;;;;;;;;;;;;;;;;;;5044971;28;1140;-76
2022/04/30 14:03:55;;;;;;;;;;;;;;;;;;5047109;28;1402;-74
2022/04/30 14:06:20;;;;;;;;;;;;;;;;;;5044451;28;1085;-75
2022/04/30 14:08:46;;;;;;;;;;;;;;;;;;5032474;28;1261;-73
2022/04/30 14:11:11;;;;;;;;;;;;;;;;;;5046624;28;1180;-74
2022/04/30 14:16:28;;;;;;;;;;;;;;;;;;5025349;28;1268;-74
2022/04/30 14:18:53;;;;;;;;;;;;;;;;;;5010117;28;1403;-73
2022/04/30 14:21:22;;;;;;;;;;;;;;;;;;5022432;28;1223;-76
2022/04/30 14:23:47;;;;;;;;;;;;;;;;;;5028940;28;1212;-74
2022/04/30 14:26:14;;;;;;;;;;;;;;;;;;5026395;28;1121;-75
2022/04/30 14:28:48;;;;;;;;;;;;;;;;;;5023548;28;1413;-75
2022/04/30 14:31:14;;;;;;;;;;;;;;;;;;5027054;28;1317;-73
2022/04/30 14:33:39;;;;;;;;;;;;;;;;;;5033912;28;1965;-74
2022/04/30 14:36:05;;;;;;;;;;;;;;;;;;5044848;28;1184;-74
2022/04/30 14:38:30;;;;;;;;;;;;;;;;;;5046092;28;1172;-74
2022/04/30 14:40:56;;;;;;;;;;;;;;;;;;5048164;28;1164;-76
2022/04/30 14:43:21;;;;;;;;;;;;;;;;;;5034340;28;1211;-78
2022/04/30 14:45:47;;;;;;;;;;;;;;;;;;5019767;28;1358;-78
2022/04/30 14:48:12;;;;;;;;;;;;;;;;;;5045736;28;1136;-76
2022/04/30 14:50:38;;;;;;;;;;;;;;;;;;5027051;28;1287;-79
2022/04/30 14:53:03;;;;;;;;;;;;;;;;;;5022474;28;1882;-75
2022/04/30 14:55:29;;;;;;;;;;;;;;;;;;5020800;28;1180;-77
2022/04/30 14:57:54;;;;;;;;;;;;;;;;;;5026120;28;1290;-81
2022/04/30 15:00:23;;;;;;;;;;;;;;;;;;5021666;28;1168;-77
2022/04/30 15:02:48;;;;;;;;;;;;;;;;;;5031833;28;1267;-82
2022/04/30 15:05:14;;;;;;;;;;;;;;;;;;5040029;28;1383;-76
2022/04/30 15:07:39;;;;;;;;;;;;;;;;;;5044687;28;1089;-75
2022/04/30 15:10:05;;;;;;;;;;;;;;;;;;5018968;28;1190;-75
2022/04/30 15:12:30;;;;;;;;;;;;;;;;;;5042324;28;1184;-78
2022/04/30 15:14:55;;;;;;;;;;;;;;;;;;5035274;28;1969;-81
2022/04/30 15:17:30;;;;;;;;;;;;;;;;;;5009635;28;1293;-81
2022/04/30 15:19:55;;;;;;;;;;;;;;;;;;5021013;28;1141;-82
2022/04/30 15:22:29;;;;;;;;;;;;;;;;;;5008379;28;1200;-84
2022/04/30 15:24:54;;;;;;;;;;;;;;;;;;5010300;28;1363;-81
2022/04/30 15:27:25;;;;;;;;;;;;;;;;;;5025246;28;1370;-82
2022/04/30 15:29:51;;;;;;;;;;;;;;;;;;5033356;28;1235;-81
2022/04/30 15:32:16;;;;;;;;;;;;;;;;;;5024349;28;1341;-83
2022/04/30 15:34:51;;;;;;;;;;;;;;;;;;5038012;28;1906;-81
2022/04/30 15:37:16;;;;;;;;;;;;;;;;;;5040472;28;1188;-79
2022/04/30 15:39:41;;;;;;;;;;;;;;;;;;5033624;28;1165;-82
2022/04/30 15:42:16;;;;;;;;;;;;;;;;;;5037850;28;1256;-85
2022/04/30 15:44:41;;;;;;;;;;;;;;;;;;5029726;28;1416;-85
2022/04/30 15:52:35;;;;;;;;;;;;;;;;;;5026999;28;989;-78
2022/04/30 15:55:01;;;;;;;;;;;;;;;;;;5034469;28;1898;-77
2022/04/30 15:57:27;;;;;;;;;;;;;;;;;;5021617;28;1033;-80
2022/04/30 15:59:53;;;;;;;;;;;;;;;;;;5033555;28;1161;-83
2022/04/30 16:02:22;;;;;;;;;;;;;;;;;;5022743;28;1279;-82
2022/04/30 16:04:48;;;;;;;;;;;;;;;;;;5032448;28;1377;-80
2022/04/30 16:07:14;;;;;;;;;;;;;;;;;;5023392;28;1145;-84
2022/04/30 16:09:42;;;;;;;;;;;;;;;;;;5024057;28;1173;-82
2022/04/30 16:12:09;;;;;;;;;;;;;;;;;;5016091;28;1285;-81
2022/04/30 16:14:34;;;;;;;;;;;;;;;;;;5026184;28;1890;-82
2022/04/30 16:16:59;;;;;;;;;;;;;;;;;;5031183;28;1271;-83
2022/04/30 16:19:30;;;;;;;;;;;;;;;;;;5014995;28;1190;-84
2022/04/30 16:21:55;;;;;;;;;;;;;;;;;;5026729;28;1300;-79
2022/04/30 16:24:21;;;;;;;;;;;;;;;;;;5016765;28;1292;-80
2022/04/30 16:26:48;;;;;;;;;;;;;;;;;;5039414;28;1290;-80
2022/04/30 16:29:14;;;;;;;;;;;;;;;;;;5040598;28;1241;-84
2022/04/30 16:31:39;;;;;;;;;;;;;;;;;;5010884;28;1229;-82
2022/04/30 16:34:05;;;;;;;;;;;;;;;;;;5016288;28;1935;-84
2022/04/30 16:36:31;;;;;;;;;;;;;;;;;;5016524;28;1352;-84
2022/04/30 16:38:58;;;;;;;;;;;;;;;;;;5024974;28;1101;-84
2022/04/30 16:41:31;;;;;;;;;;;;;;;;;;5034441;28;1318;-85
2022/04/30 16:43:57;;;;;;;;;;;;;;;;;;5031364;28;1177;-81
2022/04/30 16:46:22;;;;;;;;;;;;;;;;;;5025414;28;1215;-80
2022/04/30 16:48:48;;;;;;;;;;;;;;;;;;5014404;28;1212;-82
2022/04/30 16:53:57;;;;;;;;;;;;;;;;;;5041832;28;1925;-77
2022/04/30 16:59:12;;;;;;;;;;;;;;;;;;5023983;28;1080;-81
2022/04/30 17:01:37;;;;;;;;;;;;;;;;;;5038463;28;1342;-80
2022/04/30 17:04:03;;;;;;;;;;;;;;;;;;5036869;28;1165;-80
2022/04/30 17:06:35;;;;;;;;;;;;;;;;;;5024582;28;1381;-80
2022/04/30 17:09:00;;;;;;;;;;;;;;;;;;5044951;28;1154;-80
2022/04/30 17:11:34;;;;;;;;;;;;;;;;;;5044409;28;1093;-80
2022/04/30 17:13:59;;;;;;;;;;;;;;;;;;5037303;28;1898;-80
2022/04/30 17:16:25;;;;;;;;;;;;;;;;;;5022182;28;1173;-82
2022/04/30 17:18:54;;;;;;;;;;;;;;;;;;5044672;28;1261;-83
2022/04/30 17:21:23;;;;;;;;;;;;;;;;;;5024447;28;1180;-83
2022/04/30 17:23:48;;;;;;;;;;;;;;;;;;5023966;28;1162;-79
2022/04/30 17:26:27;;;;;;;;;;;;;;;;;;5026086;28;1179;-80
2022/04/30 17:28:52;;;;;;;;;;;;;;;;;;5031352;28;1263;-82
2022/04/30 17:39:30;;;;;;;;;;;;;;;;;;5039478;28;1069;-81
2022/04/30 17:41:55;;;;;;;;;;;;;;;;;;5010883;28;1275;-78
2022/04/30 17:44:23;;;;;;;;;;;;;;;;;;5017169;28;1277;-83
2022/04/30 17:46:48;;;;;;;;;;;;;;;;;;5029016;28;1249;-82
2022/04/30 17:49:14;;;;;;;;;;;;;;;;;;5038928;28;1398;-79
2022/04/30 17:51:40;;;;;;;;;;;;;;;;;;5041173;28;1117;-78
2022/04/30 17:54:05;;;;;;;;;;;;;;;;;;5012086;28;1930;-79
2022/04/30 17:56:30;;;;;;;;;;;;;;;;;;5009657;28;1217;-78
2022/04/30 17:58:56;;;;;;;;;;;;;;;;;;5034644;28;1225;-77
2022/04/30 18:01:21;;;;;;;;;;;;;;;;;;5045344;28;1297;-78
2022/04/30 18:03:47;;;;;;;;;;;;;;;;;;5036224;28;1006;-78
2022/04/30 18:06:12;;;;;;;;;;;;;;;;;;5029581;28;1329;-80
2022/04/30 18:08:40;;;;;;;;;;;;;;;;;;5037249;28;1209;-78
2022/04/30 18:11:06;;;;;;;;;;;;;;;;;;5035484;28;1209;-79
2022/04/30 18:13:32;;;;;;;;;;;;;;;;;;5046801;28;1875;-80
2022/04/30 18:15:57;;;;;;;;;;;;;;;;;;5043564;28;1265;-80
2022/04/30 18:18:22;;;;;;;;;;;;;;;;;;5031015;28;1357;-82